createdAt,value
2022-12-11T00:02:20.526Z,-1.15
2022-12-11T00:04:47.170Z,-1.12
2022-12-11T00:07:13.704Z,-1.01
2022-12-11T00:09:40.390Z,-1.08
2022-12-11T00:12:07.517Z,-0.92
2022-12-11T00:14:34.175Z,-0.82
2022-12-11T00:17:00.739Z,-1.05
2022-12-11T00:19:30.163Z,-1.05
2022-12-11T00:21:59.677Z,-1.23
2022-12-11T00:24:28.279Z,-1.16
2022-12-11T00:26:55.101Z,-1.16
2022-12-11T00:29:21.629Z,-1.16
2022-12-11T00:31:48.327Z,-1.35
2022-12-11T00:34:14.907Z,-1.28
2022-12-11T00:36:41.461Z,-1.29
2022-12-11T00:39:08.058Z,-1.19
2022-12-11T00:41:34.712Z,-1.19
2022-12-11T00:44:01.362Z,-1.28
2022-12-11T00:46:31.036Z,-1.31
2022-12-11T00:49:00.609Z,-1.07
2022-12-11T00:51:29.862Z,-1.23
2022-12-11T00:53:56.369Z,-1.20
2022-12-11T00:56:23.538Z,-1.07
2022-12-11T00:58:50.255Z,-1.08
2022-12-11T01:01:23.744Z,-1.08
2022-12-11T01:03:52.744Z,-1.13
2022-12-11T01:06:22.581Z,-1.08
2022-12-11T01:09:09.532Z,-0.90
2022-12-11T01:11:36.281Z,-0.94
2022-12-11T01:14:03.366Z,-1.06
2022-12-11T01:16:32.983Z,-0.95
2022-12-11T01:19:03.333Z,-1.04
2022-12-11T01:21:34.140Z,-0.94
2022-12-11T01:24:03.484Z,-0.81
2022-12-11T01:26:32.977Z,-0.90
2022-12-11T01:29:02.296Z,-0.79
2022-12-11T01:31:34.327Z,-0.92
2022-12-11T01:34:04.425Z,-0.99
2022-12-11T01:36:34.112Z,-0.90
2022-12-11T01:39:02.678Z,-0.81
2022-12-11T01:41:29.223Z,-0.83
2022-12-11T01:44:15.918Z,-0.62
2022-12-11T01:46:43.070Z,-0.68
2022-12-11T01:49:13.146Z,-0.83
2022-12-11T01:51:45.962Z,-0.80
2022-12-11T01:54:14.890Z,-0.92
2022-12-11T01:56:43.847Z,-1.09
2022-12-11T01:59:11.172Z,-1.21
2022-12-11T02:01:46.534Z,-1.07
2022-12-11T02:04:14.456Z,-1.13
2022-12-11T02:06:50.378Z,-0.94
2022-12-11T02:09:21.696Z,-0.84
2022-12-11T02:11:57.264Z,-1.04
2022-12-11T02:14:48.886Z,-1.22
2022-12-11T02:17:59.889Z,-1.18
2022-12-11T02:20:41.932Z,-1.20
2022-12-11T02:23:29.799Z,-1.26
2022-12-11T02:26:38.468Z,-1.17
2022-12-11T02:29:17.934Z,-1.21
2022-12-11T02:32:22.938Z,-0.99
2022-12-11T02:34:58.526Z,-1.10
2022-12-11T02:37:29.890Z,-1.11
2022-12-11T02:39:57.361Z,-1.05
2022-12-11T02:42:28.655Z,-1.07
2022-12-11T02:44:57.214Z,-1.04
2022-12-11T02:47:26.783Z,-1.06
2022-12-11T02:49:56.701Z,-1.02
2022-12-11T02:52:25.153Z,-1.03
2022-12-11T02:54:55.148Z,-0.97
2022-12-11T02:57:31.710Z,-1.09
2022-12-11T02:59:58.531Z,-1.13
2022-12-11T03:02:25.193Z,-0.97
2022-12-11T03:04:51.985Z,-1.12
2022-12-11T03:07:24.594Z,-1.39
2022-12-11T03:09:52.118Z,-1.65
2022-12-11T03:12:30.472Z,-1.70
2022-12-11T03:15:00.703Z,-1.75
2022-12-11T03:17:48.652Z,-1.92
2022-12-11T03:20:18.102Z,-2.00
2022-12-11T03:22:57.683Z,-2.19
2022-12-11T03:25:39.023Z,-2.32
2022-12-11T03:28:19.397Z,-2.36
2022-12-11T03:30:49.771Z,-2.33
2022-12-11T03:33:23.548Z,-2.31
2022-12-11T03:35:56.774Z,-2.24
2022-12-11T03:38:28.141Z,-2.48
2022-12-11T03:40:59.242Z,-2.57
2022-12-11T03:43:28.605Z,-2.78
2022-12-11T03:45:55.605Z,-2.71
2022-12-11T03:48:25.412Z,-2.64
2022-12-11T03:50:52.424Z,-2.67
2022-12-11T03:53:20.445Z,-2.68
2022-12-11T03:55:49.798Z,-2.64
2022-12-11T03:58:16.342Z,-2.74
2022-12-11T04:00:43.058Z,-2.75
2022-12-11T04:03:16.058Z,-2.77
2022-12-11T04:05:45.697Z,-2.81
2022-12-11T04:08:13.176Z,-2.65
2022-12-11T04:10:43.643Z,-2.70
2022-12-11T04:13:10.809Z,-2.71
2022-12-11T04:15:41.496Z,-2.78
2022-12-11T04:18:26.971Z,-2.68
2022-12-11T04:21:13.216Z,-2.72
2022-12-11T04:24:01.235Z,-2.81
2022-12-11T04:26:28.019Z,-2.82
2022-12-11T04:28:54.548Z,-2.74
2022-12-11T04:31:22.532Z,-2.77
2022-12-11T04:33:49.361Z,-2.70
2022-12-11T04:36:15.923Z,-2.72
2022-12-11T04:38:42.425Z,-2.77
2022-12-11T04:41:13.998Z,-2.81
2022-12-11T04:43:46.496Z,-2.85
2022-12-11T04:46:19.539Z,-2.91
2022-12-11T04:48:46.903Z,-2.83
2022-12-11T04:51:14.294Z,-2.65
2022-12-11T04:53:43.750Z,-2.67
2022-12-11T04:56:13.777Z,-2.61
2022-12-11T04:58:50.264Z,-2.47
2022-12-11T05:01:21.560Z,-2.53
2022-12-11T05:03:48.387Z,-2.49
2022-12-11T05:06:15.439Z,-2.48
2022-12-11T05:08:45.569Z,-2.59
2022-12-11T05:11:16.301Z,-2.67
2022-12-11T05:13:46.317Z,-2.74
2022-12-11T05:16:17.544Z,-2.67
2022-12-11T05:18:44.510Z,-2.60
2022-12-11T05:21:15.672Z,-2.69
2022-12-11T05:23:43.974Z,-2.63
2022-12-11T05:26:19.715Z,-2.58
2022-12-11T05:28:47.023Z,-2.70
2022-12-11T05:31:19.161Z,-2.71
2022-12-11T05:33:46.903Z,-2.80
2022-12-11T05:36:23.288Z,-2.84
2022-12-11T05:38:51.070Z,-2.84
2022-12-11T05:41:20.329Z,-2.82
2022-12-11T05:43:46.936Z,-2.88
2022-12-11T05:46:19.099Z,-2.95
2022-12-11T05:48:51.464Z,-2.84
2022-12-11T05:51:18.954Z,-2.74
2022-12-11T05:53:50.576Z,-2.69
2022-12-11T05:56:22.909Z,-2.78
2022-12-11T05:58:50.481Z,-2.72
2022-12-11T06:01:20.719Z,-2.79
2022-12-11T06:03:47.727Z,-2.83
2022-12-11T06:06:17.214Z,-2.90
2022-12-11T06:08:46.412Z,-2.95
2022-12-11T06:11:24.186Z,-2.90
2022-12-11T06:13:51.492Z,-2.86
2022-12-11T06:16:18.104Z,-3.03
2022-12-11T06:18:48.601Z,-3.08
2022-12-11T06:21:18.188Z,-3.24
2022-12-11T06:23:49.706Z,-3.20
2022-12-11T06:26:19.712Z,-3.32
2022-12-11T06:28:49.979Z,-3.31
2022-12-11T06:31:20.266Z,-3.41
2022-12-11T06:33:48.916Z,-3.49
2022-12-11T06:36:22.253Z,-3.61
2022-12-11T06:38:49.655Z,-3.73
2022-12-11T06:41:18.689Z,-3.66
2022-12-11T06:43:45.416Z,-3.64
2022-12-11T06:46:14.664Z,-3.77
2022-12-11T06:48:42.317Z,-3.76
2022-12-11T06:51:11.093Z,-3.72
2022-12-11T06:53:37.872Z,-3.75
2022-12-11T06:56:07.059Z,-3.73
2022-12-11T06:58:35.624Z,-3.68
2022-12-11T07:01:03.183Z,-3.59
2022-12-11T07:03:29.888Z,-3.68
2022-12-11T07:06:02.668Z,-3.53
2022-12-11T07:08:29.490Z,-3.46
2022-12-11T07:10:55.981Z,-3.42
2022-12-11T07:13:22.519Z,-3.41
2022-12-11T07:15:52.075Z,-3.45
2022-12-11T07:18:20.493Z,-3.49
2022-12-11T07:20:46.983Z,-3.41
2022-12-11T07:23:13.522Z,-3.50
2022-12-11T07:25:40.027Z,-3.62
2022-12-11T07:28:06.542Z,-3.76
2022-12-11T07:30:33.120Z,-3.72
2022-12-11T07:32:59.717Z,-3.62
2022-12-11T07:35:26.284Z,-3.72
2022-12-11T07:37:52.815Z,-3.82
2022-12-11T07:40:21.416Z,-3.74
2022-12-11T07:42:48.145Z,-2.86
2022-12-11T07:45:14.761Z,-1.38
2022-12-11T07:47:41.255Z,0.12
2022-12-11T07:50:08.094Z,1.32
2022-12-11T07:52:35.018Z,2.36
2022-12-11T07:55:01.651Z,3.14
2022-12-11T07:57:29.168Z,3.80
2022-12-11T07:59:55.695Z,4.38
2022-12-11T08:02:25.035Z,4.69
2022-12-11T08:04:55.079Z,4.69
2022-12-11T08:07:24.738Z,4.65
2022-12-11T08:10:00.314Z,4.81
2022-12-11T08:12:26.888Z,5.03
2022-12-11T08:14:56.669Z,5.22
2022-12-11T08:17:29.609Z,4.84
2022-12-11T08:19:58.403Z,4.37
2022-12-11T08:22:24.928Z,3.72
2022-12-11T08:24:54.451Z,2.75
2022-12-11T08:27:23.068Z,2.07
2022-12-11T08:29:49.559Z,1.78
2022-12-11T08:32:17.235Z,1.37
2022-12-11T08:34:44.269Z,1.06
2022-12-11T08:37:10.783Z,0.76
2022-12-11T08:39:37.475Z,0.50
2022-12-11T08:42:04.055Z,0.14
2022-12-11T08:44:31.074Z,0.22
2022-12-11T08:46:57.606Z,0.16
2022-12-11T08:49:27.514Z,-0.09
2022-12-11T08:51:56.446Z,-0.09
2022-12-11T08:54:25.837Z,-0.05
2022-12-11T08:56:58.099Z,0.19
2022-12-11T08:59:25.803Z,0.66
2022-12-11T09:01:56.184Z,1.17
2022-12-11T09:04:25.481Z,0.98
2022-12-11T09:06:54.969Z,1.15
2022-12-11T09:09:23.475Z,1.21
2022-12-11T09:11:50.431Z,1.23
2022-12-11T09:14:17.725Z,1.18
2022-12-11T09:16:44.236Z,1.05
2022-12-11T09:19:16.480Z,1.20
2022-12-11T09:21:44.176Z,1.24
2022-12-11T09:24:12.296Z,1.22
2022-12-11T09:26:39.266Z,1.00
2022-12-11T09:29:06.942Z,0.84
2022-12-11T09:31:35.645Z,0.75
2022-12-11T09:34:05.449Z,0.42
2022-12-11T09:36:32.877Z,0.10
2022-12-11T09:39:05.056Z,0.29
2022-12-11T09:41:34.550Z,0.78
2022-12-11T09:44:19.850Z,0.81
2022-12-11T09:46:47.350Z,0.68
2022-12-11T09:49:44.104Z,0.96
2022-12-11T09:52:23.238Z,0.98
2022-12-11T09:55:01.808Z,0.95
2022-12-11T09:57:28.273Z,0.97
2022-12-11T10:00:13.976Z,1.15
2022-12-11T10:02:54.167Z,1.28
2022-12-11T10:05:37.775Z,1.42
2022-12-11T10:08:19.323Z,1.90
2022-12-11T10:11:26.771Z,1.91
2022-12-11T10:14:25.476Z,1.81
2022-12-11T10:17:05.609Z,1.96
2022-12-11T10:19:33.192Z,2.39
2022-12-11T10:22:01.331Z,2.76
2022-12-11T10:27:40.943Z,2.99
2022-12-11T10:30:13.307Z,2.90
2022-12-11T10:33:18.533Z,2.95
2022-12-11T10:35:57.245Z,2.90
2022-12-11T10:38:33.274Z,2.99
2022-12-11T10:41:05.606Z,3.22
2022-12-11T10:43:46.109Z,3.45
2022-12-11T10:46:17.461Z,3.57
2022-12-11T10:48:55.475Z,3.37
2022-12-11T10:51:33.330Z,3.45
2022-12-11T10:54:17.569Z,3.27
2022-12-11T10:56:48.408Z,3.45
2022-12-11T10:59:30.783Z,3.09
2022-12-11T11:01:57.887Z,2.83
2022-12-11T11:04:31.805Z,2.62
2022-12-11T11:07:18.958Z,2.71
2022-12-11T11:09:46.340Z,2.87
2022-12-11T11:12:28.114Z,3.03
2022-12-11T11:15:13.150Z,3.20
2022-12-11T11:17:56.409Z,3.40
2022-12-11T11:20:29.754Z,3.45
2022-12-11T11:23:01.526Z,3.29
2022-12-11T11:25:31.356Z,3.08
2022-12-11T11:28:02.698Z,3.07
2022-12-11T11:30:40.007Z,3.19
2022-12-11T11:33:24.595Z,3.06
2022-12-11T11:35:57.552Z,3.16
2022-12-11T11:38:32.111Z,3.28
2022-12-11T11:41:18.636Z,3.37
2022-12-11T11:43:52.836Z,3.62
2022-12-11T11:46:29.592Z,3.57
2022-12-11T11:49:03.801Z,3.69
2022-12-11T11:51:39.033Z,3.91
2022-12-11T11:54:28.391Z,3.98
2022-12-11T11:56:57.390Z,3.72
2022-12-11T11:59:43.121Z,3.77
2022-12-11T12:02:17.760Z,3.86
2022-12-11T12:04:46.152Z,3.93
2022-12-11T12:07:42.214Z,3.51
2022-12-11T12:10:26.633Z,3.36
2022-12-11T12:13:44.332Z,3.42
2022-12-11T12:16:01.581Z,3.75
2022-12-11T12:18:34.983Z,4.14
2022-12-11T12:21:26.445Z,4.47
2022-12-11T12:24:44.160Z,5.05
2022-12-11T12:27:51.574Z,5.19
2022-12-11T12:30:22.987Z,5.00
2022-12-11T12:33:27.908Z,5.09
2022-12-11T12:36:19.809Z,5.05
2022-12-11T12:39:00.973Z,4.98
2022-12-11T12:41:33.483Z,4.99
2022-12-11T12:44:03.870Z,5.16
2022-12-11T12:46:45.682Z,5.41
2022-12-11T12:49:17.621Z,5.38
2022-12-11T12:51:45.757Z,5.04
2022-12-11T12:54:17.899Z,4.65
2022-12-11T12:56:47.062Z,4.30
2022-12-11T12:59:40.265Z,4.58
2022-12-11T13:02:16.954Z,4.99
2022-12-11T13:04:56.483Z,5.15
2022-12-11T13:07:32.902Z,5.14
2022-12-11T13:10:36.399Z,4.72
2022-12-11T13:13:05.512Z,4.51
2022-12-11T13:15:40.970Z,4.35
2022-12-11T13:18:32.617Z,4.16
2022-12-11T13:20:59.573Z,3.75
2022-12-11T13:23:34.259Z,3.62
2022-12-11T13:26:04.998Z,3.69
2022-12-11T13:28:39.508Z,3.84
2022-12-11T13:31:15.628Z,3.86
2022-12-11T13:34:23.215Z,3.61
2022-12-11T13:36:54.181Z,3.43
2022-12-11T13:39:30.618Z,3.39
2022-12-11T13:42:05.863Z,3.32
2022-12-11T13:44:42.446Z,3.33
2022-12-11T13:47:15.593Z,3.01
2022-12-11T13:49:46.139Z,3.16
2022-12-11T13:52:24.050Z,3.01
2022-12-11T13:54:59.705Z,2.93
2022-12-11T13:57:28.377Z,2.77
2022-12-11T13:59:59.492Z,2.71
2022-12-11T14:02:32.499Z,2.61
2022-12-11T14:05:02.995Z,2.50
2022-12-11T14:07:37.983Z,2.56
2022-12-11T14:10:22.014Z,2.59
2022-12-11T14:12:59.656Z,2.60
2022-12-11T14:15:28.165Z,2.64
2022-12-11T14:17:56.887Z,2.63
2022-12-11T14:20:32.422Z,2.57
2022-12-11T14:23:17.152Z,2.62
2022-12-11T14:26:11.913Z,2.69
2022-12-11T14:28:42.123Z,2.88
2022-12-11T14:31:12.202Z,2.90
2022-12-11T14:33:43.957Z,2.78
2022-12-11T14:36:11.322Z,2.87
2022-12-11T14:38:47.787Z,2.81
2022-12-11T14:41:23.148Z,2.82
2022-12-11T14:43:56.518Z,2.92
2022-12-11T14:46:38.397Z,2.87
2022-12-11T14:49:28.498Z,2.93
2022-12-11T14:51:59.274Z,2.92
2022-12-11T14:54:34.376Z,2.90
2022-12-11T14:57:06.236Z,2.99
2022-12-11T14:59:41.197Z,3.09
2022-12-11T15:02:30.407Z,2.98
2022-12-11T15:05:19.736Z,2.89
2022-12-11T15:07:58.288Z,2.77
2022-12-11T15:10:36.147Z,2.58
2022-12-11T15:13:06.000Z,2.60
2022-12-11T15:15:39.330Z,2.62
2022-12-11T15:18:14.380Z,2.56
2022-12-11T15:20:41.353Z,2.42
2022-12-11T15:23:08.490Z,2.38
2022-12-11T15:25:35.393Z,2.33
2022-12-11T15:28:02.341Z,2.16
2022-12-11T15:30:35.166Z,2.15
2022-12-11T15:33:10.217Z,2.03
2022-12-11T15:35:38.402Z,2.00
2022-12-11T15:38:05.553Z,1.98
2022-12-11T15:40:32.393Z,1.87
2022-12-11T15:43:03.249Z,1.79
2022-12-11T15:45:30.874Z,1.79
2022-12-11T15:48:01.174Z,1.70
2022-12-11T15:50:30.344Z,1.56
2022-12-11T15:52:59.646Z,1.57
2022-12-11T15:55:35.094Z,1.58
2022-12-11T15:58:09.316Z,1.50
2022-12-11T16:00:35.829Z,1.34
2022-12-11T16:03:02.390Z,1.25
2022-12-11T16:05:32.009Z,1.14
2022-12-11T16:08:01.503Z,1.15
2022-12-11T16:10:29.376Z,1.07
2022-12-11T16:12:59.527Z,1.10
2022-12-11T16:15:29.822Z,1.09
2022-12-11T16:18:08.665Z,1.02
2022-12-11T16:20:36.975Z,0.95
2022-12-11T16:23:04.477Z,0.75
2022-12-11T16:25:32.705Z,0.83
2022-12-11T16:28:02.404Z,0.72
2022-12-11T16:30:31.792Z,0.68
2022-12-11T16:33:00.907Z,0.84
2022-12-11T16:35:29.975Z,0.87
2022-12-11T16:37:59.217Z,0.96
2022-12-11T16:40:25.808Z,0.90
2022-12-11T16:42:52.767Z,0.86
2022-12-11T16:45:23.137Z,0.85
2022-12-11T16:47:49.804Z,0.87
2022-12-11T16:50:17.447Z,0.85
2022-12-11T16:52:45.021Z,0.79
2022-12-11T16:55:12.815Z,0.73
2022-12-11T16:57:39.616Z,0.74
2022-12-11T17:00:09.091Z,0.76
2022-12-11T17:02:36.367Z,0.81
2022-12-11T17:05:03.041Z,0.83
2022-12-11T17:07:33.272Z,0.75
2022-12-11T17:10:02.854Z,0.62
2022-12-11T17:12:32.293Z,0.74
2022-12-11T17:15:02.075Z,0.77
2022-12-11T17:17:31.452Z,0.75
2022-12-11T17:20:01.269Z,0.76
2022-12-11T17:22:30.821Z,0.69
2022-12-11T17:25:02.094Z,0.74
2022-12-11T17:27:31.450Z,0.69
2022-12-11T17:29:59.791Z,0.73
2022-12-11T17:32:31.000Z,0.71
2022-12-11T17:35:00.786Z,0.72
2022-12-11T17:37:29.376Z,0.79
2022-12-11T17:39:55.966Z,0.83
2022-12-11T17:42:22.486Z,0.75
2022-12-11T17:44:48.975Z,0.66
2022-12-11T17:47:15.495Z,0.63
2022-12-11T17:49:42.047Z,0.52
2022-12-11T17:52:08.694Z,0.55
2022-12-11T17:54:35.453Z,0.54
2022-12-11T17:57:03.092Z,0.43
2022-12-11T17:59:29.704Z,0.63
2022-12-11T18:01:56.300Z,0.52
2022-12-11T18:04:23.948Z,0.49
2022-12-11T18:06:50.451Z,0.37
2022-12-11T18:09:17.013Z,0.38
2022-12-11T18:11:43.568Z,0.40
2022-12-11T18:14:17.170Z,0.44
2022-12-11T18:16:44.260Z,0.45
2022-12-11T18:19:10.949Z,0.46
2022-12-11T18:21:41.287Z,0.44
2022-12-11T18:24:08.829Z,0.27
2022-12-11T18:26:35.904Z,0.26
2022-12-11T18:29:02.459Z,0.30
2022-12-11T18:31:31.603Z,0.35
2022-12-11T18:33:59.709Z,0.31
2022-12-11T18:36:29.022Z,0.34
2022-12-11T18:38:55.550Z,0.14
2022-12-11T18:41:37.257Z,0.25
2022-12-11T18:44:16.711Z,0.07
2022-12-11T18:46:52.133Z,-0.05
2022-12-11T18:49:19.176Z,0.03
2022-12-11T18:51:45.675Z,0.00
2022-12-11T18:54:12.634Z,0.08
2022-12-11T18:56:50.798Z,0.15
2022-12-11T18:59:31.192Z,0.20
2022-12-11T19:02:00.806Z,0.22
2022-12-11T19:04:31.264Z,0.17
2022-12-11T19:07:02.459Z,0.30
2022-12-11T19:09:36.910Z,0.27
2022-12-11T19:12:04.926Z,0.27
2022-12-11T19:14:31.481Z,0.22
2022-12-11T19:17:01.057Z,0.14
2022-12-11T19:19:30.704Z,0.10
2022-12-11T19:21:59.628Z,0.14
2022-12-11T19:24:26.111Z,0.11
2022-12-11T19:26:52.729Z,0.02
2022-12-11T19:29:23.577Z,-0.05
2022-12-11T19:31:50.747Z,0.15
2022-12-11T19:34:18.072Z,0.03
2022-12-11T19:36:44.766Z,-0.05
2022-12-11T19:39:13.360Z,0.07
2022-12-11T19:41:41.345Z,0.11
2022-12-11T19:44:08.857Z,0.10
2022-12-11T19:46:35.942Z,-0.05
2022-12-11T19:49:21.569Z,-0.11
2022-12-11T19:52:04.650Z,-0.03
2022-12-11T19:54:32.435Z,0.03
2022-12-11T19:56:59.684Z,-0.06
2022-12-11T19:59:26.189Z,-0.15
2022-12-11T20:01:53.489Z,-0.13
2022-12-11T20:04:23.516Z,-0.16
2022-12-11T20:06:53.096Z,-0.24
2022-12-11T20:09:19.706Z,-0.28
2022-12-11T20:11:47.821Z,-0.21
2022-12-11T20:14:19.618Z,-0.15
2022-12-11T20:17:09.762Z,-0.11
2022-12-11T20:19:32.763Z,-0.20
2022-12-11T20:22:00.143Z,-0.27
2022-12-11T20:24:29.406Z,-0.19
2022-12-11T20:27:00.273Z,-0.20
2022-12-11T20:29:29.620Z,-0.19
2022-12-11T20:31:56.990Z,-0.12
2022-12-11T20:34:23.832Z,-0.09
2022-12-11T20:36:52.345Z,0.04
2022-12-11T20:39:18.828Z,0.06
2022-12-11T20:41:45.356Z,0.06
2022-12-11T20:44:11.888Z,0.03
2022-12-11T20:46:38.372Z,0.07
2022-12-11T20:49:05.010Z,-0.11
2022-12-11T20:51:32.758Z,-0.07
2022-12-11T20:54:02.149Z,0.00
2022-12-11T20:56:32.070Z,0.02
2022-12-11T20:59:01.929Z,-0.10
2022-12-11T21:01:33.059Z,-0.14
2022-12-11T21:04:00.059Z,-0.16
2022-12-11T21:06:31.334Z,-0.22
2022-12-11T21:09:00.780Z,-0.21
2022-12-11T21:11:30.479Z,-0.36
2022-12-11T21:13:59.928Z,-0.35
2022-12-11T21:16:30.239Z,-0.53
2022-12-11T21:19:01.617Z,-0.47
2022-12-11T21:21:32.075Z,-0.44
2022-12-11T21:24:01.341Z,-0.49
2022-12-11T21:26:30.816Z,-0.45
2022-12-11T21:28:59.643Z,-0.58
2022-12-11T21:31:28.627Z,-0.56
2022-12-11T21:33:55.215Z,-0.49
2022-12-11T21:36:21.737Z,-0.45
2022-12-11T21:38:48.890Z,-0.41
2022-12-11T21:41:22.351Z,-0.46
2022-12-11T21:46:38.063Z,-0.54
2022-12-11T21:49:04.779Z,-0.51
2022-12-11T21:51:40.264Z,-0.58
2022-12-11T21:54:13.378Z,-0.52
2022-12-11T21:56:40.705Z,-0.63
2022-12-11T21:59:07.358Z,-0.78
2022-12-11T22:01:40.924Z,-0.66
2022-12-11T22:04:09.264Z,-0.69
2022-12-11T22:06:36.366Z,-0.76
2022-12-11T22:09:03.096Z,-0.74
2022-12-11T22:11:32.509Z,-0.73
2022-12-11T22:13:59.337Z,-0.78
2022-12-11T22:16:25.929Z,-0.83
2022-12-11T22:18:52.695Z,-0.82
2022-12-11T22:21:19.858Z,-0.65
2022-12-11T22:23:46.785Z,-0.71
2022-12-11T22:26:20.197Z,-0.86
2022-12-11T22:28:47.178Z,-0.86
2022-12-11T22:31:16.677Z,-0.92
2022-12-11T22:33:43.594Z,-0.97
2022-12-11T22:36:10.920Z,-0.93
2022-12-11T22:38:37.515Z,-1.05
2022-12-11T22:41:21.898Z,-0.87
2022-12-11T22:43:48.861Z,-0.81
2022-12-11T22:46:16.740Z,-0.92
2022-12-11T22:48:43.260Z,-1.07
2022-12-11T22:51:10.335Z,-1.05
2022-12-11T22:53:36.876Z,-1.15
2022-12-11T22:56:08.156Z,-1.38
2022-12-11T22:58:35.214Z,-1.27
2022-12-11T23:01:02.612Z,-1.28
2022-12-11T23:03:31.263Z,-1.41
2022-12-11T23:06:01.979Z,-1.57
2022-12-11T23:08:32.135Z,-1.70
2022-12-11T23:11:01.267Z,-1.60
2022-12-11T23:13:27.773Z,-1.52
2022-12-11T23:15:54.289Z,-1.60
2022-12-11T23:18:20.801Z,-1.60
2022-12-11T23:20:49.446Z,-1.60
2022-12-11T23:23:16.042Z,-1.76
2022-12-11T23:25:42.533Z,-1.68
2022-12-11T23:28:09.032Z,-1.76
2022-12-11T23:30:35.713Z,-1.79
2022-12-11T23:33:02.207Z,-1.82
2022-12-11T23:35:32.890Z,-1.99
2022-12-11T23:38:01.781Z,-2.06
2022-12-11T23:40:28.317Z,-1.97
2022-12-11T23:42:54.806Z,-1.96
2022-12-11T23:45:21.339Z,-1.85
2022-12-11T23:47:47.861Z,-1.70
2022-12-11T23:50:14.462Z,-1.60
2022-12-11T23:52:40.993Z,-1.75
2022-12-11T23:55:08.393Z,-1.74
2022-12-11T23:57:35.438Z,-1.82
